Time;durP1;ratioP1;P1;durP2;ratioP2;P2;SDS_P1;SDS_P2;PMS_P1;PMS_P2;Temp;Humidity;BMP_temperature;BMP_pressure;BME280_temperature;BME280_humidity;BME280_pressure;Samples;Min_cycle;Max_cycle;Signal;HPM_P1;HPM_P2
2023/05/02 00:02:16;;;;;;;18.10;8.00;;;;;;;11.02;61.05;100060.84;126191;1298;115034;-70
2023/05/02 00:06:14;;;;;;;;;;;;;;;;;;;;;
2023/05/02 00:10:09;;;;;;;12.10;8.80;;;;;;;10.85;61.40;100048.93;125750;1297;114913;-71
2023/05/02 00:13:27;;;;;;;;;;;;;;;;;;;;;
2023/05/02 00:17:38;;;;;;;23.60;13.80;;;;;;;10.72;61.64;100043.58;126733;1292;635972;-70
2023/05/02 00:21:28;;;;;;;;;;;;;;;;;;;;;
2023/05/02 00:25:18;;;;;;;;;;;;;;;;;;;;;
2023/05/02 00:29:22;;;;;;;19.30;11.70;;;;;;;10.52;62.58;100041.58;128753;1276;114942;-72
2023/05/02 00:33:00;;;;;;;;;;;;;;;;;;;;;
2023/05/02 00:37:07;;;;;;;17.50;11.00;;;;;;;10.44;62.82;100033.98;128463;1276;114844;-71
2023/05/02 00:41:04;;;;;;;;;;;;;;;;;;;;;
2023/05/02 00:44:45;;;;;;;;;;;;;;;;;;;;;
2023/05/02 00:48:38;;;;;;;;;;;;;;;;;;;;;
2023/05/02 00:52:11;;;;;;;13.30;10.10;;;;;;;10.36;63.60;100025.79;125786;1298;114757;-71
2023/05/02 00:56:03;;;;;;;16.10;10.90;;;;;;;10.35;63.68;100025.14;125878;1315;114961;-70
2023/05/02 00:59:42;;;;;;;14.30;9.80;;;;;;;10.33;64.12;100014.48;125877;1318;114869;-70
2023/05/02 01:03:46;;;;;;;18.00;12.00;;;;;;;10.32;64.03;100016.00;126320;1311;129818;-71
2023/05/02 01:07:37;;;;;;;16.00;10.90;;;;;;;10.33;64.26;100021.46;126432;1293;115371;-69
2023/05/02 01:11:46;;;;;;;;;;;;;;;;;;;;;
2023/05/02 01:15:43;;;;;;;19.30;11.70;;;;;;;10.34;64.32;100019.30;125779;1302;114905;-70
2023/05/02 01:19:43;;;;;;;;;;;;;;;;;;;;;
2023/05/02 01:23:18;;;;;;;17.10;11.00;;;;;;;10.32;64.54;100015.67;127660;1285;128804;-71
2023/05/02 01:27:07;;;;;;;15.00;11.00;;;;;;;10.31;64.72;100016.58;127590;1280;115221;-70
2023/05/02 01:31:00;;;;;;;15.60;10.60;;;;;;;10.31;64.87;100013.73;127571;1286;114978;-70
2023/05/02 01:34:54;;;;;;;17.80;11.00;;;;;;;10.31;64.93;100024.27;126825;1299;114766;-70
2023/05/02 01:38:41;;;;;;;15.60;10.00;;;;;;;10.29;65.13;100032.05;126499;1290;115574;-70
2023/05/02 01:42:43;;;;;;;15.80;10.40;;;;;;;10.28;65.04;100030.48;126209;1310;128945;-70
2023/05/02 01:46:27;;;;;;;;;;;;;;;;;;;;;
2023/05/02 01:50:06;;;;;;;14.10;10.00;;;;;;;10.28;65.36;100035.87;126282;1295;114830;-71
2023/05/02 01:53:37;;;;;;;;;;;;;;;;;;;;;
2023/05/02 01:57:39;;;;;;;13.60;10.00;;;;;;;10.29;65.91;100040.44;126326;1298;114856;-70
2023/05/02 02:01:30;;;;;;;;;;;;;;;;;;;;;
2023/05/02 02:05:16;;;;;;;;;;;;;;;;;;;;;
2023/05/02 02:08:50;;;;;;;;;;;;;;;;;;;;;
2023/05/02 02:12:44;;;;;;;;;;;;;;;;;;;;;
2023/05/02 02:16:38;;;;;;;14.90;10.40;;;;;;;10.32;66.06;100034.04;126106;1291;114959;-68
2023/05/02 02:20:28;;;;;;;10.40;8.10;;;;;;;10.32;66.24;100035.48;125799;1298;129891;-70
2023/05/02 02:24:15;;;;;;;11.30;9.40;;;;;;;10.31;66.33;100038.90;125888;1296;115390;-70
2023/05/02 02:27:54;;;;;;;13.10;9.00;;;;;;;10.29;66.38;100045.59;126070;1295;114955;-71
2023/05/02 02:31:40;;;;;;;11.90;9.10;;;;;;;10.27;66.38;100050.70;126206;1298;114876;-70
2023/05/02 02:35:17;;;;;;;13.50;9.70;;;;;;;10.26;66.70;100057.93;125640;1302;114973;-69
2023/05/02 02:39:20;;;;;;;11.10;8.80;;;;;;;10.25;66.64;100065.49;125571;1323;129663;-69
2023/05/02 02:43:10;;;;;;;16.20;9.10;;;;;;;10.24;66.71;100069.46;125419;1310;115310;-68
2023/05/02 02:47:08;;;;;;;14.20;10.00;;;;;;;10.23;67.11;100069.50;125578;1320;115050;-69
2023/05/02 02:51:14;;;;;;;;;;;;;;;;;;;;;
2023/05/02 02:55:28;;;;;;;14.50;9.90;;;;;;;10.26;67.49;100073.45;126083;1299;636190;-70
2023/05/02 02:59:15;;;;;;;16.90;10.40;;;;;;;10.26;67.42;100080.96;128356;1289;128798;-70
2023/05/02 03:03:03;;;;;;;;;;;;;;;;;;;;;
2023/05/02 03:06:57;;;;;;;13.20;9.80;;;;;;;10.28;67.92;100085.64;127773;1284;114851;-69
2023/05/02 03:10:28;;;;;;;;;;;;;;;;;;;;;
2023/05/02 03:13:59;;;;;;;;;;;;;;;;;;;;;
2023/05/02 03:17:56;;;;;;;16.80;10.00;;;;;;;10.34;67.74;100084.42;127058;1304;114804;-69
2023/05/02 03:21:55;;;;;;;13.50;9.00;;;;;;;10.38;67.47;100088.73;126246;1306;129663;-69
2023/05/02 03:25:46;;;;;;;15.60;9.60;;;;;;;10.43;67.67;100097.24;126006;1306;115293;-70
2023/05/02 03:29:27;;;;;;;15.50;8.80;;;;;;;10.49;67.70;100102.64;125767;1302;114910;-70
2023/05/02 03:33:26;;;;;;;15.00;9.00;;;;;;;10.55;67.75;100106.08;125264;1318;115254;-70
2023/05/02 03:36:50;;;;;;;10.60;8.00;;;;;;;10.63;67.56;100109.39;125274;1326;114785;-70
2023/05/02 03:40:50;;;;;;;13.40;7.90;;;;;;;10.69;67.86;100113.55;125222;1308;128014;-69
2023/05/02 03:44:07;;;;;;;12.10;7.90;;;;;;;10.76;67.83;100114.59;124413;1329;115265;-71
2023/05/02 03:47:59;;;;;;;10.00;7.70;;;;;;;10.83;67.94;100119.60;125416;1309;114872;-72
2023/05/02 03:51:41;;;;;;;;;;;;;;;;;;;;;
2023/05/02 03:55:27;;;;;;;7.50;6.10;;;;;;;10.98;67.70;100140.40;124842;1306;114975;-69
2023/05/02 03:59:14;;;;;;;;;;;;;;;;;;;;;
2023/05/02 04:03:14;;;;;;;12.30;6.20;;;;;;;11.15;67.52;100150.60;125891;1302;115266;-71
2023/05/02 04:07:06;;;;;;;8.50;6.10;;;;;;;11.24;67.55;100150.83;125193;1313;114876;-71
2023/05/02 04:11:01;;;;;;;8.20;6.00;;;;;;;11.32;67.56;100155.23;125561;1303;115659;-71
2023/05/02 04:14:55;;;;;;;;;;;;;;;;;;;;;
2023/05/02 04:18:36;;;;;;;;;;;;;;;;;;;;;
2023/05/02 04:22:14;;;;;;;;;;;;;;;;;;;;;
2023/05/02 04:25:57;;;;;;;;;;;;;;;;;;;;;
2023/05/02 04:29:59;;;;;;;9.10;5.90;;;;;;;11.76;67.48;100170.48;126205;1314;114918;-71
2023/05/02 04:33:47;;;;;;;12.30;5.80;;;;;;;11.85;67.24;100182.84;125948;1302;114911;-70
2023/05/02 04:37:30;;;;;;;;;;;;;;;;;;;;;
2023/05/02 04:41:14;;;;;;;8.40;5.60;;;;;;;12.05;67.41;100203.96;125911;1302;115685;-72
2023/05/02 04:45:01;;;;;;;8.00;6.10;;;;;;;12.12;67.56;100205.91;126493;1303;114946;-71
2023/05/02 04:48:45;;;;;;;;;;;;;;;;;;;;;
2023/05/02 04:52:40;;;;;;;12.70;6.00;;;;;;;12.25;68.20;100226.45;125735;1301;114936;-71
2023/05/02 04:56:28;;;;;;;;;;;;;;;;;;;;;
2023/05/02 05:00:23;;;;;;;;;;;;;;;;;;;;;
2023/05/02 05:04:01;;;;;;;7.60;5.40;;;;;;;12.45;68.04;100230.14;125610;1299;114851;-71
2023/05/02 05:08:02;;;;;;;8.90;5.50;;;;;;;12.50;68.15;100226.06;125844;1302;114884;-71
2023/05/02 05:11:45;;;;;;;;;;;;;;;;;;;;;
2023/05/02 05:15:41;;;;;;;11.10;5.70;;;;;;;12.60;68.63;100230.84;126140;1307;129805;-72
2023/05/02 05:19:37;;;;;;;10.20;6.00;;;;;;;12.67;68.81;100232.22;123898;1333;114798;-71
2023/05/02 05:23:35;;;;;;;;;;;;;;;;;;;;;
2023/05/02 05:27:27;;;;;;;10.60;6.20;;;;;;;12.76;69.37;100243.15;123751;1314;114903;-68
2023/05/02 05:31:27;;;;;;;9.10;5.90;;;;;;;12.81;69.47;100250.59;124285;1331;114853;-67
2023/05/02 05:35:12;;;;;;;8.70;5.80;;;;;;;12.88;69.50;100251.98;124256;1307;129800;-66
2023/05/02 05:38:39;;;;;;;9.90;5.90;;;;;;;12.97;69.73;100248.42;124060;1316;115305;-68
2023/05/02 05:42:16;;;;;;;;;;;;;;;;;;;;;
2023/05/02 05:46:03;;;;;;;8.60;5.40;;;;;;;13.12;70.12;100268.61;124163;1327;114864;-67
2023/05/02 05:49:41;;;;;;;;;;;;;;;;;;;;;
2023/05/02 05:53:44;;;;;;;11.70;7.20;;;;;;;13.19;70.05;100269.12;125690;1295;128781;-66
2023/05/02 05:57:30;;;;;;;9.80;6.80;;;;;;;13.21;70.28;100277.77;125495;1296;117024;-67
2023/05/02 06:01:16;;;;;;;;;;;;;;;;;;;;;
2023/05/02 06:04:44;;;;;;;;;;;;;;;13.31;70.06;100288.45;125654;1309;116367;-67
2023/05/02 06:08:35;;;;;;;7.30;6.30;;;;;;;13.40;70.43;100293.49;126843;1309;114945;-69
2023/05/02 06:12:19;;;;;;;6.50;5.10;;;;;;;13.52;70.24;100294.95;125437;1302;130368;-68
2023/05/02 06:16:06;;;;;;;9.90;6.60;;;;;;;13.63;70.21;100292.48;126059;1305;115319;-67
2023/05/02 06:19:55;;;;;;;10.10;6.60;;;;;;;13.77;70.05;100298.08;125601;1304;114965;-68
2023/05/02 06:23:46;;;;;;;;;;;;;;;;;;;;;
2023/05/02 06:27:18;;;;;;;8.20;6.80;;;;;;;14.03;69.94;100314.02;125510;1321;114962;-66
2023/05/02 06:30:47;;;;;;;;;;;;;;;;;;;;;
2023/05/02 06:34:16;;;;;;;9.00;6.30;;;;;;;14.35;69.56;100311.41;125957;1306;115233;-68
2023/05/02 06:38:00;;;;;;;8.20;6.10;;;;;;;14.52;69.29;100318.39;126620;1293;114797;-67
2023/05/02 06:41:43;;;;;;;10.70;6.50;;;;;;;14.74;69.28;100324.54;126606;1302;115027;-67
2023/05/02 06:45:26;;;;;;;7.60;5.90;;;;;;;14.96;69.40;100328.86;126493;1295;114824;-74
2023/05/02 06:49:01;;;;;;;9.40;6.30;;;;;;;15.11;68.76;100331.45;127282;1302;128824;-68
2023/05/02 06:52:39;;;;;;;;;;;;;;;;;;;;;
2023/05/02 06:56:06;;;;;;;;;;;;;;;;;;;;;
2023/05/02 06:59:56;;;;;;;;;;;;;;;;;;;;;
2023/05/02 07:03:41;;;;;;;8.50;6.60;;;;;;;15.79;67.98;100347.05;127862;1292;115014;-68
2023/05/02 07:07:21;;;;;;;12.60;6.10;;;;;;;16.02;67.59;100350.33;128708;1273;127719;-70
2023/05/02 07:10:54;;;;;;;;;;;;;;;;;;;;;
2023/05/02 07:14:40;;;;;;;;;;;;;;;;;;;;;
2023/05/02 07:18:20;;;;;;;;;;;;;;;;;;;;;
2023/05/02 07:21:59;;;;;;;14.60;6.70;;;;;;;17.13;66.60;100354.17;126930;1292;116549;-68
2023/05/02 07:25:36;;;;;;;9.10;6.60;;;;;;;17.56;66.25;100354.66;126732;1295;128968;-69
2023/05/02 07:29:09;;;;;;;;;;;;;;;;;;;;;
2023/05/02 07:32:40;;;;;;;8.70;6.70;;;;;;;18.60;65.10;100358.30;126544;1296;114970;-65
2023/05/02 07:36:33;;;;;;;7.80;5.50;;;;;;;19.20;64.72;100360.12;126408;1298;114890;-65
2023/05/02 07:39:41;;;;;;;7.00;5.70;;;;;;;19.88;63.60;100364.62;126514;1308;115044;-64
2023/05/02 07:42:57;;;;;;;10.20;6.80;;;;;;;20.29;62.49;100372.16;126643;1289;128461;-65
2023/05/02 07:46:37;;;;;;;12.40;6.40;;;;;;;20.60;61.42;100372.91;126872;1308;114772;-65
2023/05/02 07:50:08;;;;;;;7.90;5.60;;;;;;;20.94;60.92;100372.77;126981;1289;114826;-67
2023/05/02 07:53:50;;;;;;;7.60;5.60;;;;;;;21.26;59.65;100373.09;126860;1286;114986;-67
2023/05/02 07:57:45;;;;;;;;;;;;;;;;;;;;;
2023/05/02 08:01:15;;;;;;;9.30;5.30;;;;;;;21.78;58.24;100382.05;128202;1295;128859;-69
2023/05/02 08:04:29;;;;;;;9.60;5.70;;;;;;;21.96;57.19;100385.20;129349;1264;115241;-67
2023/05/02 08:07:56;;;;;;;7.60;5.60;;;;;;;22.11;56.44;100387.17;129431;1267;114816;-67
2023/05/02 08:11:45;;;;;;;8.80;5.40;;;;;;;22.21;55.41;100389.90;129371;1269;114973;-67
2023/05/02 08:15:32;;;;;;;;;;;;;;;;;;;;;
2023/05/02 08:19:17;;;;;;;6.20;4.90;;;;;;;22.35;54.53;100395.48;129508;1264;127534;-68
2023/05/02 08:22:30;;;;;;;7.70;5.40;;;;;;;22.53;53.73;100395.24;129339;1265;115380;-67
2023/05/02 08:25:41;;;;;;;6.60;5.50;;;;;;;22.63;53.22;100392.20;129345;1268;114984;-68
2023/05/02 08:29:36;;;;;;;;;;;;;;;;;;;;;
2023/05/02 08:33:31;;;;;;;6.70;5.20;;;;;;;22.68;52.16;100395.35;128670;1274;114927;-68
2023/05/02 08:36:55;;;;;;;9.80;6.00;;;;;;;22.58;51.42;100397.24;127573;1287;128446;-67
2023/05/02 08:40:21;;;;;;;8.40;6.40;;;;;;;22.46;51.22;100401.90;128119;1290;114741;-69
2023/05/02 08:43:56;;;;;;;8.30;5.80;;;;;;;22.35;50.92;100404.95;128132;1281;114984;-67
2023/05/02 08:47:31;;;;;;;;;;;;;;;;;;;;;
2023/05/02 08:51:34;;;;;;;;;;;;;;;;;;;;;
2023/05/02 08:55:27;;;;;;;;;;;;;;;;;;;;;
2023/05/02 08:59:16;;;;;;;6.60;5.10;;;;;;;22.40;49.64;100422.05;127037;1284;115464;-68
2023/05/02 09:03:12;;;;;;;7.20;5.00;;;;;;;22.42;49.40;100422.60;127122;1286;114919;-67
2023/05/02 09:07:06;;;;;;;;;;;;;;;;;;;;;
2023/05/02 09:10:16;;;;;;;9.60;5.10;;;;;;;22.32;48.37;100428.69;126771;1289;115643;-67
2023/05/02 09:14:06;;;;;;;5.70;4.80;;;;;;;22.22;48.42;100430.95;127132;1295;130344;-67
2023/05/02 09:17:45;;;;;;;8.80;5.50;;;;;;;22.14;48.65;100440.63;127561;1283;116596;-68
2023/05/02 09:21:36;;;;;;;9.80;5.00;;;;;;;22.09;48.20;100443.59;127266;1283;114835;-68
2023/05/02 09:25:34;;;;;;;6.60;5.00;;;;;;;22.10;48.60;100449.30;126662;1305;115044;-61
2023/05/02 09:29:37;;;;;;;;;;;;;;;;;;;;;
2023/05/02 09:33:36;;;;;;;6.20;5.40;;;;;;;22.15;47.60;100453.98;125707;1297;129863;-61
2023/05/02 09:37:33;;;;;;;;;;;;;;;;;;;;;
2023/05/02 09:41:34;;;;;;;;;;;;;;;;;;;;;
2023/05/02 09:46:03;;;;;;;6.90;5.40;;;;;;;22.52;47.76;100463.70;126461;1291;636162;-61
2023/05/02 09:49:10;;;;;;;12.40;7.90;;;;;;;22.64;47.70;100472.62;128040;1278;128791;-70
2023/05/02 09:52:26;;;;;;;13.90;6.50;;;;;;;22.70;47.54;100473.95;128441;1278;115376;-73
2023/05/02 09:55:31;;;;;;;8.90;6.10;;;;;;;22.69;47.14;100474.63;128431;1275;114849;-61
2023/05/02 10:03:21;;;;;;;10.70;6.10;;;;;;;22.81;47.11;100482.03;126547;1300;115016;-62
2023/05/02 10:07:24;;;;;;;9.70;6.00;;;;;;;22.89;46.97;100487.24;125955;1314;115087;-62
2023/05/02 10:11:26;;;;;;;8.50;6.00;;;;;;;23.03;46.77;100485.66;125272;1304;128338;-66
2023/05/02 10:19:51;;;;;;;;;;;;;;;;;;;;;
2023/05/02 10:23:52;;;;;;;;;;;;;;;;;;;;;
2023/05/02 10:27:40;;;;;;;;;;;;;;;;;;;;;
2023/05/02 10:31:26;;;;;;;7.80;5.60;;;;;;;23.55;45.35;100490.55;125043;1291;5429684;-65
2023/05/02 10:35:23;;;;;;;10.20;5.90;;;;;;;23.75;45.15;100490.91;126937;1296;114941;-63
2023/05/02 10:39:22;;;;;;;;;;;;;;;;;;;;;
2023/05/02 10:43:13;;;;;;;8.50;5.40;;;;;;;24.03;44.04;100498.26;126083;1293;129871;-62
2023/05/02 10:47:15;;;;;;;;;;;;;;;;;;;;;
2023/05/02 10:50:52;;;;;;;;;;;;;;;;;;;;;
2023/05/02 10:54:42;;;;;;;8.20;5.30;;;;;;;24.20;42.30;100502.73;125595;1311;114971;-61
2023/05/02 10:58:53;;;;;;;;;;;;;;;;;;;;;
2023/05/02 11:02:36;;;;;;;8.30;5.30;;;;;;;24.30;42.09;100501.52;125285;1302;129888;-62
2023/05/02 11:06:44;;;;;;;8.10;5.50;;;;;;;24.28;41.70;100502.29;129483;1297;113624;-63
2023/05/02 11:10:14;;;;;;;9.00;5.40;;;;;;;24.24;41.70;100503.40;125435;1318;114972;-61
2023/05/02 11:18:49;;;;;;;7.90;6.30;;;;;;;24.30;40.17;100508.45;126418;1295;114989;-61
2023/05/02 11:22:39;;;;;;;9.30;5.20;;;;;;;24.37;40.26;100514.10;125626;1315;131837;-61
2023/05/02 11:26:10;;;;;;;8.10;5.60;;;;;;;24.43;39.81;100515.09;127340;1298;115352;-62
2023/05/02 11:30:31;;;;;;;8.40;5.80;;;;;;;24.45;39.78;100518.39;127028;1291;114932;-62
2023/05/02 11:34:36;;;;;;;7.30;5.70;;;;;;;24.49;39.78;100520.61;126574;1311;114920;-62
2023/05/02 11:38:37;;;;;;;10.10;6.20;;;;;;;24.52;39.17;100523.09;125771;1314;114946;-61
2023/05/02 11:42:45;;;;;;;9.70;6.30;;;;;;;24.48;39.20;100526.48;125570;1309;128786;-62
2023/05/02 11:46:19;;;;;;;;;;;;;;;;;;;;;
2023/05/02 11:49:54;;;;;;;;;;;;;;;;;;;;;
2023/05/02 11:58:14;;;;;;;10.10;5.80;;;;;;;24.40;38.27;100529.34;126049;1308;637262;-63
2023/05/02 12:01:35;;;;;;;6.70;5.40;;;;;;;24.41;38.55;100531.58;127910;1291;128585;-61
2023/05/02 12:05:30;;;;;;;9.20;5.80;;;;;;;24.50;38.83;100527.96;127882;1283;115236;-61
2023/05/02 12:08:45;;;;;;;8.60;5.70;;;;;;;24.60;38.51;100529.60;126622;1311;114862;-60
2023/05/02 12:12:12;;;;;;;;;;;;;;;;;;;;;
2023/05/02 12:15:50;;;;;;;8.90;5.80;;;;;;;24.67;38.10;100524.59;127279;1289;115449;-61
2023/05/02 12:19:22;;;;;;;;;;;;;;;;;;;;;
2023/05/02 12:23:19;;;;;;;7.90;6.10;;;;;;;24.71;38.23;100526.39;127466;1283;128526;-61
2023/05/02 12:26:36;;;;;;;9.10;6.20;;;;;;;24.74;37.59;100527.02;126574;1302;116630;-62
2023/05/02 12:30:17;;;;;;;;;;;;;;;;;;;;;
2023/05/02 12:34:12;;;;;;;9.60;6.20;;;;;;;24.70;37.65;100541.15;126534;1297;114853;-64
2023/05/02 12:37:38;;;;;;;9.70;5.70;;;;;;;24.78;38.49;100546.02;126665;1304;114987;-65
2023/05/02 12:41:41;;;;;;;;;;;;;;;;;;;;;
2023/05/02 12:45:17;;;;;;;7.60;5.10;;;;;;;24.42;37.84;100586.80;127129;1286;115186;-61
2023/05/02 12:49:07;;;;;;;6.40;4.20;;;;;;;23.71;37.48;100595.30;127970;1290;114947;-62
2023/05/02 12:53:23;;;;;;;6.40;4.50;;;;;;;22.71;38.78;100610.95;127367;1288;114954;-61
2023/05/02 13:00:55;;;;;;;6.70;5.30;;;;;;;20.79;43.45;100631.66;125878;1302;130063;-62
2023/05/02 13:04:30;;;;;;;14.00;5.50;;;;;;;20.00;44.78;100646.21;125758;1317;116683;-63
2023/05/02 13:08:23;;;;;;;6.10;4.70;;;;;;;19.28;46.60;100649.32;125291;1322;115015;-63
2023/05/02 13:12:00;;;;;;;;;;;;;;;;;;;;;
2023/05/02 13:15:55;;;;;;;11.10;4.10;;;;;;;17.77;48.49;100642.63;124572;1315;115003;-62
2023/05/02 13:19:56;;;;;;;4.40;3.60;;;;;;;17.10;49.88;100632.12;124278;1327;128624;-61
2023/05/02 13:23:55;;;;;;;;;;;;;;;;;;;;;
2023/05/02 13:27:55;;;;;;;;;;;;;;;;;;;;;
2023/05/02 13:31:56;;;;;;;3.40;2.50;;;;;;;15.86;52.98;100608.45;124624;1312;114943;-64
2023/05/02 13:40:14;;;;;;;4.50;3.10;;;;;;;15.44;54.89;100604.20;126231;1292;635929;-61
2023/05/02 13:44:10;;;;;;;4.20;3.40;;;;;;;15.30;55.20;100610.84;128465;1277;129857;-62
2023/05/02 13:48:12;;;;;;;6.60;3.90;;;;;;;15.39;56.29;100615.12;127489;1285;115285;-61
2023/05/02 13:52:07;;;;;;;4.40;3.80;;;;;;;15.58;56.24;100614.95;123029;1287;5496298;-61
2023/05/02 13:56:09;;;;;;;4.30;3.50;;;;;;;15.82;57.53;100613.77;125663;1318;114900;-62
2023/05/02 14:04:48;;;;;;;4.30;3.90;;;;;;;16.38;57.01;100608.56;125665;1295;639047;-61
2023/05/02 14:08:36;;;;;;;;;;;;;;;;;;;;;
2023/05/02 14:12:19;;;;;;;;;;;;;;;;;;;;;
2023/05/02 14:16:00;;;;;;;;;;;;;;;;;;;;;
2023/05/02 14:20:01;;;;;;;9.70;5.30;;;;;;;17.40;55.65;100607.94;125598;1302;115044;-62
2023/05/02 14:24:03;;;;;;;8.00;4.20;;;;;;;17.61;55.58;100607.12;124213;1328;114909;-61
2023/05/02 14:32:24;;;;;;;6.80;2.60;;;;;;;18.05;54.98;100611.45;126236;1297;636039;-62
2023/05/02 14:36:03;;;;;;;3.70;2.80;;;;;;;18.17;53.37;100608.56;127862;1281;127757;-61
2023/05/02 14:39:57;;;;;;;3.30;2.50;;;;;;;18.31;53.98;100608.17;127908;1281;115198;-63
2023/05/02 14:44:26;;;;;;;3.90;2.50;;;;;;;18.49;53.11;100610.61;126275;1312;114864;-62
2023/05/02 14:48:02;;;;;;;3.30;2.60;;;;;;;18.67;53.56;100611.52;121670;1300;114871;-63
2023/05/02 14:51:58;;;;;;;;;;;;;;;;;;;;;
2023/05/02 15:00:40;;;;;;;4.10;3.10;;;;;;;19.03;53.50;100621.96;125885;1298;638252;-62
2023/05/02 15:04:44;;;;;;;4.50;3.00;;;;;;;19.14;53.52;100623.64;128067;1278;128895;-61
2023/05/02 15:08:46;;;;;;;8.80;3.40;;;;;;;19.23;54.41;100625.94;127734;1283;115189;-62
2023/05/02 15:12:38;;;;;;;6.30;4.10;;;;;;;19.30;53.95;100627.64;122918;1292;5460202;-61
2023/05/02 15:16:29;;;;;;;5.50;4.10;;;;;;;19.39;54.70;100630.46;126572;1291;114862;-63
2023/05/02 15:20:22;;;;;;;8.40;4.20;;;;;;;19.45;53.63;100632.70;126662;1292;114772;-64
2023/05/02 15:24:08;;;;;;;;;;;;;;;;;;;;;
2023/05/02 15:28:08;;;;;;;5.80;4.10;;;;;;;19.50;54.38;100639.75;125365;1303;128910;-68
2023/05/02 15:31:48;;;;;;;12.10;4.80;;;;;;;19.47;54.47;100643.10;124624;1311;114997;-64
2023/05/02 15:35:28;;;;;;;5.50;4.10;;;;;;;19.40;54.29;100644.00;124364;1322;115157;-64
2023/05/02 15:39:02;;;;;;;;;;;;;;;;;;;;;
2023/05/02 15:42:45;;;;;;;8.80;4.30;;;;;;;19.23;54.57;100642.83;125320;1323;114900;-62
2023/05/02 15:46:51;;;;;;;4.80;4.40;;;;;;;19.19;54.91;100646.37;125178;1297;130163;-61
2023/05/02 15:50:35;;;;;;;;;;;;;;;;;;;;;
2023/05/02 15:54:26;;;;;;;5.30;4.50;;;;;;;19.11;54.86;100653.55;124580;1325;114976;-61
2023/05/02 15:58:40;;;;;;;;;;;;;;;;;;;;;
2023/05/02 16:02:19;;;;;;;;;;;;;;;;;;;;;
2023/05/02 16:06:16;;;;;;;;;;;;;;;;;;;;;
2023/05/02 16:14:35;;;;;;;;;;;;;;;;;;;;;
2023/05/02 16:18:29;;;;;;;;;;;;;;;;;;;;;
2023/05/02 16:22:29;;;;;;;;;;;;;;;;;;;;;
2023/05/02 16:25:56;;;;;;;10.90;6.10;;;;;;;18.33;57.64;100676.38;123334;1295;5419047;-67
2023/05/02 16:29:49;;;;;;;10.20;6.30;;;;;;;18.25;57.95;100678.86;127108;1290;115267;-64
2023/05/02 16:33:41;;;;;;;8.90;5.70;;;;;;;18.14;57.90;100680.70;126976;1292;114937;-66
2023/05/02 16:37:28;;;;;;;;;;;;;;;;;;;;;
2023/05/02 16:41:28;;;;;;;16.60;8.90;;;;;;;17.93;57.54;100688.38;126009;1299;115255;-63
2023/05/02 16:45:30;;;;;;;11.00;8.30;;;;;;;17.82;57.23;100691.52;125344;1315;114958;-64
2023/05/02 16:53:55;;;;;;;12.20;8.20;;;;;;;17.65;57.58;100705.95;126333;1303;636412;-62
2023/05/02 16:57:49;;;;;;;;;;;;;;;;;;;;;
2023/05/02 17:01:45;;;;;;;12.90;8.30;;;;;;;17.44;58.24;100714.52;127373;1289;115465;-63
2023/05/02 17:05:21;;;;;;;;;;;;;;;;;;;;;
2023/05/02 17:09:09;;;;;;;12.70;8.70;;;;;;;17.21;58.64;100722.48;126656;1291;114895;-65
2023/05/02 17:12:56;;;;;;;;;;;;;;;;;;;;;
2023/05/02 17:16:51;;;;;;;12.40;8.70;;;;;;;17.07;58.87;100723.45;125994;1314;114869;-63
2023/05/02 17:20:32;;;;;;;;;;;;;;;;;;;;;
2023/05/02 17:24:35;;;;;;;8.60;6.90;;;;;;;16.90;58.76;100728.06;125237;1320;116462;-63
2023/05/02 17:28:28;;;;;;;8.40;7.00;;;;;;;16.76;57.91;100734.39;124918;1308;115461;-65
2023/05/02 17:31:55;;;;;;;;;;;;;;;;;;;;;
2023/05/02 17:35:51;;;;;;;;;;;;;;;;;;;;;
2023/05/02 17:39:34;;;;;;;;;;;;;;;;;;;;;
2023/05/02 17:43:06;;;;;;;;;;;;;;;;;;;;;
2023/05/02 17:46:51;;;;;;;10.20;8.30;;;;;;;16.38;59.33;100752.96;124660;1307;114808;-61
2023/05/02 17:50:58;;;;;;;16.00;10.60;;;;;;;16.28;59.45;100756.14;124393;1319;114909;-62
2023/05/02 17:54:53;;;;;;;;;;;;;;;;;;;;;
2023/05/02 17:59:27;;;;;;;13.50;9.50;;;;;;;16.11;59.39;100767.72;126148;1296;641636;-62
2023/05/02 18:03:29;;;;;;;14.30;8.70;;;;;;;16.01;59.34;100775.93;128686;1286;128856;-63
2023/05/02 18:07:32;;;;;;;;;;;;;;;;;;;;;
2023/05/02 18:11:26;;;;;;;9.90;7.90;;;;;;;15.78;58.90;100790.17;122942;1286;5682129;-61
2023/05/02 18:15:43;;;;;;;10.30;8.50;;;;;;;15.70;59.09;100793.61;125353;1320;114815;-62
2023/05/02 18:19:38;;;;;;;11.80;9.10;;;;;;;15.62;59.08;100799.99;124504;1329;114782;-61
2023/05/02 18:23:30;;;;;;;;;;;;;;;;;;;;;
2023/05/02 18:31:56;;;;;;;11.70;8.90;;;;;;;15.41;59.26;100810.64;126404;1293;636046;-66
2023/05/02 18:35:49;;;;;;;11.20;8.90;;;;;;;15.31;59.43;100817.17;129146;1269;127751;-67
2023/05/02 18:39:49;;;;;;;;;;;;;;;;;;;;;
2023/05/02 18:43:33;;;;;;;11.30;8.50;;;;;;;15.17;59.65;100832.40;124225;1276;5420172;-67
2023/05/02 18:47:31;;;;;;;12.90;8.80;;;;;;;15.10;59.71;100840.22;128055;1283;114762;-66
2023/05/02 18:51:35;;;;;;;13.10;9.90;;;;;;;15.04;59.54;100839.88;127888;1283;114909;-66
2023/05/02 18:55:13;;;;;;;;;;;;;;;;;;;;;
2023/05/02 18:58:54;;;;;;;;;;;;;;;;;;;;;
2023/05/02 19:02:47;;;;;;;;;;;;;;;;;;;;;
2023/05/02 19:10:49;;;;;;;12.00;8.30;;;;;;;14.76;59.78;100863.81;126228;1307;636386;-66
2023/05/02 19:14:38;;;;;;;;;;;;;;;;;;;;;
2023/05/02 19:18:35;;;;;;;;;;;;;;;;;;;;;
2023/05/02 19:22:37;;;;;;;11.20;6.40;;;;;;;14.50;59.86;100884.33;126535;1290;114964;-66
2023/05/02 19:26:28;;;;;;;10.20;7.10;;;;;;;14.40;59.71;100888.27;122297;1309;115283;-66
2023/05/02 19:30:30;;;;;;;10.80;6.20;;;;;;;14.33;59.75;100893.91;126011;1307;114942;-66
2023/05/02 19:34:24;;;;;;;;;;;;;;;;;;;;;
2023/05/02 19:38:11;;;;;;;11.50;7.40;;;;;;;14.15;60.15;100907.45;125344;1324;129916;-65
2023/05/02 19:42:03;;;;;;;11.10;7.40;;;;;;;14.08;60.34;100908.56;124486;1322;115425;-66
2023/05/02 19:45:39;;;;;;;12.90;8.10;;;;;;;13.99;60.26;100912.80;124852;1322;114911;-64
2023/05/02 19:49:25;;;;;;;;;;;;;;;;;;;;;
2023/05/02 19:53:04;;;;;;;;;;;;;;;;;;;;;
2023/05/02 19:56:52;;;;;;;11.70;7.60;;;;;;;13.75;61.20;100930.06;124361;1317;129827;-65
2023/05/02 20:00:41;;;;;;;;;;;;;;;;;;;;;
2023/05/02 20:04:26;;;;;;;12.00;7.60;;;;;;;13.56;61.58;100942.35;126067;1299;115025;-65
2023/05/02 20:07:50;;;;;;;9.10;6.60;;;;;;;13.47;61.69;100941.02;125874;1302;115003;-66
2023/05/02 20:11:41;;;;;;;9.30;7.00;;;;;;;13.40;62.00;100946.02;125566;1324;114965;-67
2023/05/02 20:15:26;;;;;;;;;;;;;;;;;;;;;
2023/05/02 20:19:25;;;;;;;;;;;;;;;;;;;;;
2023/05/02 20:27:35;;;;;;;;;;;;;;;;;;;;;
2023/05/02 20:31:32;;;;;;;9.30;6.20;;;;;;;13.14;62.71;100961.45;129278;1272;128536;-64
2023/05/02 20:35:35;;;;;;;8.70;6.50;;;;;;;13.11;62.94;100964.52;128505;1279;114812;-59
2023/05/02 20:39:43;;;;;;;12.20;6.70;;;;;;;13.06;63.17;100971.73;127376;1286;5435446;-67
2023/05/02 20:43:29;;;;;;;;;;;;;;;;;;;;;
2023/05/02 20:47:32;;;;;;;12.70;7.60;;;;;;;12.97;63.44;100975.59;125390;1302;129738;-68
2023/05/02 20:51:23;;;;;;;;;;;;;;;;;;;;;
2023/05/02 20:55:22;;;;;;;11.90;8.20;;;;;;;12.90;63.72;100977.52;125008;1330;115259;-68
2023/05/02 21:00:13;;;;;;;11.30;7.40;;;;;;;12.91;63.77;100982.88;126096;1300;653475;-68
2023/05/02 21:04:11;;;;;;;7.80;6.50;;;;;;;12.88;63.90;100987.63;128148;1277;128732;-70
2023/05/02 21:08:16;;;;;;;8.60;6.20;;;;;;;12.86;63.81;100996.91;127567;1305;115390;-71
2023/05/02 21:12:09;;;;;;;9.10;6.10;;;;;;;12.83;63.80;101000.83;124914;1283;3213809;-69
2023/05/02 21:15:59;;;;;;;;;;;;;;;;;;;;;
2023/05/02 21:19:54;;;;;;;;;;;;;;;;;;;;;
2023/05/02 21:24:09;;;;;;;12.00;6.70;;;;;;;12.75;64.05;101014.42;125013;1310;129766;-70
2023/05/02 21:32:03;;;;;;;;;;;;;;;;;;;;;
2023/05/02 21:35:37;;;;;;;;;;;;;;;;;;;;;
2023/05/02 21:39:39;;;;;;;9.60;6.10;;;;;;;12.62;63.99;101028.49;127656;1304;114946;-71
2023/05/02 21:43:34;;;;;;;;;;;;;;;;;;;;;
2023/05/02 21:47:38;;;;;;;9.30;5.10;;;;;;;12.56;64.32;101034.34;122769;1314;114938;-68
2023/05/02 21:51:33;;;;;;;10.80;5.50;;;;;;;12.53;64.00;101034.65;125910;1301;114872;-70
2023/05/02 21:55:35;;;;;;;11.20;5.70;;;;;;;12.53;64.37;101037.15;125354;1307;114959;-69
2023/05/02 21:59:17;;;;;;;9.40;5.70;;;;;;;12.52;64.18;101042.58;123757;1317;129809;-76
2023/05/02 22:03:11;;;;;;;;;;;;;;;;;;;;;
2023/05/02 22:07:03;;;;;;;;;;;;;;;;;;;;;
2023/05/02 22:10:58;;;;;;;;;;;;;;;;;;;;;
2023/05/02 22:15:04;;;;;;;7.80;5.70;;;;;;;12.54;64.54;101055.20;125741;1300;638974;-71
2023/05/02 22:18:58;;;;;;;9.30;6.10;;;;;;;12.52;64.56;101054.59;128100;1277;129040;-70